sensor_id;sensor_type;location;lat;lon;timestamp;temperature;humidity
10306;DHT22;5198;52.382;9.020;2023-04-03T00:01:05;3.90;99.90
10306;DHT22;5198;52.382;9.020;2023-04-03T00:05:08;3.90;99.90
10306;DHT22;5198;52.382;9.020;2023-04-03T00:09:11;3.80;99.90
10306;DHT22;5198;52.382;9.020;2023-04-03T00:13:16;3.70;99.90
10306;DHT22;5198;52.382;9.020;2023-04-03T00:17:19;3.70;99.90
10306;DHT22;5198;52.382;9.020;2023-04-03T00:21:22;3.60;99.90
10306;DHT22;5198;52.382;9.020;2023-04-03T00:29:29;3.50;99.90
10306;DHT22;5198;52.382;9.020;2023-04-03T00:33:32;3.50;99.90
10306;DHT22;5198;52.382;9.020;2023-04-03T00:37:35;3.40;99.90
10306;DHT22;5198;52.382;9.020;2023-04-03T00:41:37;3.30;99.90
10306;DHT22;5198;52.382;9.020;2023-04-03T00:45:42;3.30;99.90
10306;DHT22;5198;52.382;9.020;2023-04-03T00:49:46;3.20;99.90
10306;DHT22;5198;52.382;9.020;2023-04-03T00:53:49;3.10;99.90
10306;DHT22;5198;52.382;9.020;2023-04-03T00:57:53;3.10;99.90
10306;DHT22;5198;52.382;9.020;2023-04-03T01:01:58;3.00;99.90
10306;DHT22;5198;52.382;9.020;2023-04-03T01:06:02;3.00;99.90
10306;DHT22;5198;52.382;9.020;2023-04-03T01:10:06;2.90;99.90
10306;DHT22;5198;52.382;9.020;2023-04-03T01:14:09;2.90;99.90
10306;DHT22;5198;52.382;9.020;2023-04-03T01:18:13;2.80;99.90
10306;DHT22;5198;52.382;9.020;2023-04-03T01:22:16;2.70;99.90
10306;DHT22;5198;52.382;9.020;2023-04-03T01:26:22;2.70;99.90
10306;DHT22;5198;52.382;9.020;2023-04-03T01:30:28;2.60;99.90
10306;DHT22;5198;52.382;9.020;2023-04-03T01:34:34;2.60;99.90
10306;DHT22;5198;52.382;9.020;2023-04-03T01:38:36;2.50;99.90
10306;DHT22;5198;52.382;9.020;2023-04-03T01:42:39;2.50;99.90
10306;DHT22;5198;52.382;9.020;2023-04-03T01:46:42;2.40;99.90
10306;DHT22;5198;52.382;9.020;2023-04-03T01:50:46;2.40;99.90
10306;DHT22;5198;52.382;9.020;2023-04-03T01:54:49;2.30;99.90
10306;DHT22;5198;52.382;9.020;2023-04-03T01:58:52;2.30;99.90
10306;DHT22;5198;52.382;9.020;2023-04-03T02:02:55;2.20;99.90
10306;DHT22;5198;52.382;9.020;2023-04-03T02:06:59;2.10;99.90
10306;DHT22;5198;52.382;9.020;2023-04-03T02:11:02;2.10;99.90
10306;DHT22;5198;52.382;9.020;2023-04-03T02:15:05;2.00;99.90
10306;DHT22;5198;52.382;9.020;2023-04-03T02:19:08;2.00;99.90
10306;DHT22;5198;52.382;9.020;2023-04-03T02:23:12;1.90;99.90
10306;DHT22;5198;52.382;9.020;2023-04-03T02:27:15;1.90;99.90
10306;DHT22;5198;52.382;9.020;2023-04-03T02:31:18;1.80;99.90
10306;DHT22;5198;52.382;9.020;2023-04-03T02:35:22;1.70;99.90
10306;DHT22;5198;52.382;9.020;2023-04-03T02:47:33;1.60;99.90
10306;DHT22;5198;52.382;9.020;2023-04-03T02:51:36;1.60;99.90
10306;DHT22;5198;52.382;9.020;2023-04-03T02:55:38;1.50;99.90
10306;DHT22;5198;52.382;9.020;2023-04-03T02:59:41;1.40;99.90
10306;DHT22;5198;52.382;9.020;2023-04-03T03:03:47;1.40;99.90
10306;DHT22;5198;52.382;9.020;2023-04-03T03:07:49;1.30;99.90
10306;DHT22;5198;52.382;9.020;2023-04-03T03:11:52;1.30;99.90
10306;DHT22;5198;52.382;9.020;2023-04-03T03:15:55;1.30;99.90
10306;DHT22;5198;52.382;9.020;2023-04-03T03:19:59;1.20;99.90
10306;DHT22;5198;52.382;9.020;2023-04-03T03:24:02;1.20;99.90
10306;DHT22;5198;52.382;9.020;2023-04-03T03:28:05;1.20;99.90
10306;DHT22;5198;52.382;9.020;2023-04-03T03:32:08;1.10;99.90
10306;DHT22;5198;52.382;9.020;2023-04-03T03:36:12;1.10;99.90
10306;DHT22;5198;52.382;9.020;2023-04-03T03:40:15;1.10;99.90
10306;DHT22;5198;52.382;9.020;2023-04-03T03:44:18;1.00;99.90
10306;DHT22;5198;52.382;9.020;2023-04-03T03:48:21;1.00;99.90
10306;DHT22;5198;52.382;9.020;2023-04-03T03:52:25;0.90;99.90
10306;DHT22;5198;52.382;9.020;2023-04-03T03:56:28;0.90;99.90
10306;DHT22;5198;52.382;9.020;2023-04-03T04:00:31;0.80;99.90
10306;DHT22;5198;52.382;9.020;2023-04-03T04:04:34;0.80;99.90
10306;DHT22;5198;52.382;9.020;2023-04-03T04:08:38;0.70;99.90
10306;DHT22;5198;52.382;9.020;2023-04-03T04:12:41;0.60;99.90
10306;DHT22;5198;52.382;9.020;2023-04-03T04:16:44;0.60;99.90
10306;DHT22;5198;52.382;9.020;2023-04-03T04:20:47;0.50;99.90
10306;DHT22;5198;52.382;9.020;2023-04-03T04:24:51;0.50;99.90
10306;DHT22;5198;52.382;9.020;2023-04-03T04:28:54;0.40;99.90
10306;DHT22;5198;52.382;9.020;2023-04-03T04:32:57;0.40;99.90
10306;DHT22;5198;52.382;9.020;2023-04-03T04:37:00;0.40;99.90
10306;DHT22;5198;52.382;9.020;2023-04-03T04:41:04;0.30;99.90
10306;DHT22;5198;52.382;9.020;2023-04-03T04:45:07;0.30;99.90
10306;DHT22;5198;52.382;9.020;2023-04-03T04:49:10;0.20;99.90
10306;DHT22;5198;52.382;9.020;2023-04-03T04:53:13;0.20;99.90
10306;DHT22;5198;52.382;9.020;2023-04-03T04:57:17;0.20;99.90
10306;DHT22;5198;52.382;9.020;2023-04-03T05:01:20;0.10;99.90
10306;DHT22;5198;52.382;9.020;2023-04-03T05:05:23;0.10;99.90
10306;DHT22;5198;52.382;9.020;2023-04-03T05:09:26;0.10;99.90
10306;DHT22;5198;52.382;9.020;2023-04-03T05:13:30;0.10;99.90
10306;DHT22;5198;52.382;9.020;2023-04-03T05:17:33;0.10;99.90
10306;DHT22;5198;52.382;9.020;2023-04-03T05:21:36;0.00;99.90
10306;DHT22;5198;52.382;9.020;2023-04-03T05:25:39;0.00;99.90
10306;DHT22;5198;52.382;9.020;2023-04-03T05:29:44;0.10;99.90
10306;DHT22;5198;52.382;9.020;2023-04-03T05:33:47;0.10;99.90
10306;DHT22;5198;52.382;9.020;2023-04-03T05:37:50;0.00;99.90
10306;DHT22;5198;52.382;9.020;2023-04-03T05:41:53;0.00;99.90
10306;DHT22;5198;52.382;9.020;2023-04-03T05:45:57;0.10;99.90
10306;DHT22;5198;52.382;9.020;2023-04-03T05:50:00;0.10;99.90
10306;DHT22;5198;52.382;9.020;2023-04-03T05:54:04;0.20;99.90
10306;DHT22;5198;52.382;9.020;2023-04-03T05:58:08;0.40;99.90
10306;DHT22;5198;52.382;9.020;2023-04-03T06:02:14;0.60;99.90
10306;DHT22;5198;52.382;9.020;2023-04-03T06:06:17;0.80;99.90
10306;DHT22;5198;52.382;9.020;2023-04-03T06:10:21;0.90;99.90
10306;DHT22;5198;52.382;9.020;2023-04-03T06:14:24;1.00;99.90
10306;DHT22;5198;52.382;9.020;2023-04-03T06:18:28;1.10;99.90
10306;DHT22;5198;52.382;9.020;2023-04-03T06:22:31;1.10;99.90
10306;DHT22;5198;52.382;9.020;2023-04-03T06:30:37;1.20;99.90
10306;DHT22;5198;52.382;9.020;2023-04-03T06:34:42;1.30;99.90
10306;DHT22;5198;52.382;9.020;2023-04-03T06:38:44;1.40;99.90
10306;DHT22;5198;52.382;9.020;2023-04-03T06:42:47;1.40;99.90
10306;DHT22;5198;52.382;9.020;2023-04-03T06:46:50;1.50;99.90
10306;DHT22;5198;52.382;9.020;2023-04-03T06:50:56;1.60;99.90
10306;DHT22;5198;52.382;9.020;2023-04-03T06:54:59;1.70;99.90
10306;DHT22;5198;52.382;9.020;2023-04-03T06:59:02;1.80;99.90
10306;DHT22;5198;52.382;9.020;2023-04-03T07:03:06;1.80;99.90
10306;DHT22;5198;52.382;9.020;2023-04-03T07:07:10;2.00;99.90
10306;DHT22;5198;52.382;9.020;2023-04-03T07:11:13;2.10;99.90
10306;DHT22;5198;52.382;9.020;2023-04-03T07:15:16;2.20;99.90
10306;DHT22;5198;52.382;9.020;2023-04-03T07:19:19;2.30;99.90
10306;DHT22;5198;52.382;9.020;2023-04-03T07:23:24;2.50;99.90
10306;DHT22;5198;52.382;9.020;2023-04-03T07:27:27;2.70;99.90
10306;DHT22;5198;52.382;9.020;2023-04-03T07:31:29;2.80;99.90
10306;DHT22;5198;52.382;9.020;2023-04-03T07:35:33;2.90;99.90
10306;DHT22;5198;52.382;9.020;2023-04-03T07:39:37;3.10;99.90
10306;DHT22;5198;52.382;9.020;2023-04-03T07:43:40;3.30;99.90
10306;DHT22;5198;52.382;9.020;2023-04-03T07:47:43;3.50;99.90
10306;DHT22;5198;52.382;9.020;2023-04-03T07:51:46;3.80;99.90
10306;DHT22;5198;52.382;9.020;2023-04-03T07:55:51;4.10;99.90
10306;DHT22;5198;52.382;9.020;2023-04-03T07:59:57;4.30;99.90
10306;DHT22;5198;52.382;9.020;2023-04-03T08:03:59;4.60;99.90
10306;DHT22;5198;52.382;9.020;2023-04-03T08:08:02;4.60;99.90
10306;DHT22;5198;52.382;9.020;2023-04-03T08:12:07;5.00;99.90
10306;DHT22;5198;52.382;9.020;2023-04-03T08:20:16;5.70;99.90
10306;DHT22;5198;52.382;9.020;2023-04-03T08:24:19;5.70;99.90
10306;DHT22;5198;52.382;9.020;2023-04-03T08:40:32;6.30;99.90
10306;DHT22;5198;52.382;9.020;2023-04-03T08:44:38;6.50;99.90
10306;DHT22;5198;52.382;9.020;2023-04-03T08:48:45;7.00;99.90
10306;DHT22;5198;52.382;9.020;2023-04-03T08:52:48;7.10;99.90
10306;DHT22;5198;52.382;9.020;2023-04-03T08:56:54;7.40;99.90
10306;DHT22;5198;52.382;9.020;2023-04-03T09:00:58;7.50;99.90
10306;DHT22;5198;52.382;9.020;2023-04-03T09:05:05;7.80;99.90
10306;DHT22;5198;52.382;9.020;2023-04-03T09:09:14;8.00;99.90
10306;DHT22;5198;52.382;9.020;2023-04-03T09:13:23;8.20;99.90
10306;DHT22;5198;52.382;9.020;2023-04-03T09:17:31;8.40;99.90
10306;DHT22;5198;52.382;9.020;2023-04-03T09:21:37;8.60;99.90
10306;DHT22;5198;52.382;9.020;2023-04-03T09:25:40;8.90;99.90
10306;DHT22;5198;52.382;9.020;2023-04-03T09:29:44;9.00;99.90
10306;DHT22;5198;52.382;9.020;2023-04-03T09:33:49;9.20;99.90
10306;DHT22;5198;52.382;9.020;2023-04-03T09:37:53;9.40;99.90
10306;DHT22;5198;52.382;9.020;2023-04-03T09:41:59;9.50;99.90
10306;DHT22;5198;52.382;9.020;2023-04-03T09:46:23;9.60;99.90
10306;DHT22;5198;52.382;9.020;2023-04-03T09:50:26;9.70;99.90
10306;DHT22;5198;52.382;9.020;2023-04-03T09:54:31;9.90;99.90
10306;DHT22;5198;52.382;9.020;2023-04-03T09:58:36;9.90;99.90
10306;DHT22;5198;52.382;9.020;2023-04-03T10:02:53;10.30;99.90
10306;DHT22;5198;52.382;9.020;2023-04-03T10:06:57;10.50;99.90
10306;DHT22;5198;52.382;9.020;2023-04-03T10:11:08;10.60;99.90
10306;DHT22;5198;52.382;9.020;2023-04-03T10:15:12;10.90;99.90
10306;DHT22;5198;52.382;9.020;2023-04-03T10:19:22;11.20;99.90
10306;DHT22;5198;52.382;9.020;2023-04-03T10:23:31;11.40;99.90
10306;DHT22;5198;52.382;9.020;2023-04-03T10:27:38;11.50;99.90
10306;DHT22;5198;52.382;9.020;2023-04-03T10:31:44;11.60;99.90
10306;DHT22;5198;52.382;9.020;2023-04-03T10:35:52;11.50;99.90
10306;DHT22;5198;52.382;9.020;2023-04-03T10:39:59;11.40;99.90
10306;DHT22;5198;52.382;9.020;2023-04-03T10:44:06;11.30;99.90
10306;DHT22;5198;52.382;9.020;2023-04-03T10:48:13;11.10;99.90
10306;DHT22;5198;52.382;9.020;2023-04-03T10:52:22;11.00;99.90
10306;DHT22;5198;52.382;9.020;2023-04-03T10:56:31;10.80;99.90
10306;DHT22;5198;52.382;9.020;2023-04-03T11:00:36;10.70;99.90
10306;DHT22;5198;52.382;9.020;2023-04-03T11:04:41;10.70;99.90
10306;DHT22;5198;52.382;9.020;2023-04-03T11:08:48;10.90;99.90
10306;DHT22;5198;52.382;9.020;2023-04-03T11:12:56;11.10;99.90
10306;DHT22;5198;52.382;9.020;2023-04-03T11:17:05;11.30;99.90
10306;DHT22;5198;52.382;9.020;2023-04-03T11:21:12;11.40;99.90
10306;DHT22;5198;52.382;9.020;2023-04-03T11:25:20;11.40;99.90
10306;DHT22;5198;52.382;9.020;2023-04-03T11:29:26;11.50;99.90
10306;DHT22;5198;52.382;9.020;2023-04-03T11:33:37;11.60;99.90
10306;DHT22;5198;52.382;9.020;2023-04-03T11:37:44;11.60;99.90
10306;DHT22;5198;52.382;9.020;2023-04-03T11:41:49;11.60;99.90
10306;DHT22;5198;52.382;9.020;2023-04-03T11:46:04;11.70;99.90
10306;DHT22;5198;52.382;9.020;2023-04-03T11:50:08;11.80;99.90
10306;DHT22;5198;52.382;9.020;2023-04-03T11:58:40;11.90;99.90
10306;DHT22;5198;52.382;9.020;2023-04-03T12:07:24;11.80;99.90
10306;DHT22;5198;52.382;9.020;2023-04-03T12:11:28;11.70;99.90
10306;DHT22;5198;52.382;9.020;2023-04-03T12:19:49;11.50;99.90
10306;DHT22;5198;52.382;9.020;2023-04-03T12:24:02;11.60;99.90
10306;DHT22;5198;52.382;9.020;2023-04-03T12:28:05;11.70;99.90
10306;DHT22;5198;52.382;9.020;2023-04-03T12:32:10;11.90;99.90
10306;DHT22;5198;52.382;9.020;2023-04-03T12:36:18;12.00;99.90
10306;DHT22;5198;52.382;9.020;2023-04-03T12:40:28;12.20;99.90
10306;DHT22;5198;52.382;9.020;2023-04-03T12:44:42;12.40;99.90
10306;DHT22;5198;52.382;9.020;2023-04-03T12:48:49;12.60;99.90
10306;DHT22;5198;52.382;9.020;2023-04-03T12:52:55;12.60;99.90
10306;DHT22;5198;52.382;9.020;2023-04-03T12:57:16;12.70;99.90
10306;DHT22;5198;52.382;9.020;2023-04-03T13:01:20;12.70;99.90
10306;DHT22;5198;52.382;9.020;2023-04-03T13:05:24;12.80;99.90
10306;DHT22;5198;52.382;9.020;2023-04-03T13:09:28;12.90;99.90
10306;DHT22;5198;52.382;9.020;2023-04-03T13:13:33;12.90;99.90
10306;DHT22;5198;52.382;9.020;2023-04-03T13:17:38;12.80;99.90
10306;DHT22;5198;52.382;9.020;2023-04-03T13:21:41;12.80;99.90
10306;DHT22;5198;52.382;9.020;2023-04-03T13:25:45;12.70;99.90
10306;DHT22;5198;52.382;9.020;2023-04-03T13:29:50;12.60;99.90
10306;DHT22;5198;52.382;9.020;2023-04-03T13:33:55;12.60;99.90
10306;DHT22;5198;52.382;9.020;2023-04-03T13:38:01;12.50;99.90
10306;DHT22;5198;52.382;9.020;2023-04-03T13:42:14;12.40;99.90
10306;DHT22;5198;52.382;9.020;2023-04-03T13:46:26;12.30;99.90
10306;DHT22;5198;52.382;9.020;2023-04-03T13:50:29;12.10;99.90
10306;DHT22;5198;52.382;9.020;2023-04-03T13:54:33;12.10;99.90
10306;DHT22;5198;52.382;9.020;2023-04-03T13:58:37;12.00;99.90
10306;DHT22;5198;52.382;9.020;2023-04-03T14:02:41;12.00;99.90
10306;DHT22;5198;52.382;9.020;2023-04-03T14:06:44;12.00;99.90
10306;DHT22;5198;52.382;9.020;2023-04-03T14:10:48;12.00;99.90
10306;DHT22;5198;52.382;9.020;2023-04-03T14:14:51;12.00;99.90
10306;DHT22;5198;52.382;9.020;2023-04-03T14:18:56;12.00;99.90
10306;DHT22;5198;52.382;9.020;2023-04-03T14:22:59;12.00;99.90
10306;DHT22;5198;52.382;9.020;2023-04-03T14:27:02;12.00;99.90
10306;DHT22;5198;52.382;9.020;2023-04-03T14:31:04;12.00;99.90
10306;DHT22;5198;52.382;9.020;2023-04-03T14:35:09;12.10;99.90
10306;DHT22;5198;52.382;9.020;2023-04-03T14:39:15;12.20;99.90
10306;DHT22;5198;52.382;9.020;2023-04-03T14:43:19;12.30;99.90
10306;DHT22;5198;52.382;9.020;2023-04-03T14:47:23;12.30;99.90
10306;DHT22;5198;52.382;9.020;2023-04-03T14:51:33;12.30;99.90
10306;DHT22;5198;52.382;9.020;2023-04-03T14:55:36;12.30;99.90
10306;DHT22;5198;52.382;9.020;2023-04-03T14:59:39;12.30;99.90
10306;DHT22;5198;52.382;9.020;2023-04-03T15:03:42;12.40;99.90
10306;DHT22;5198;52.382;9.020;2023-04-03T15:07:48;12.30;99.90
10306;DHT22;5198;52.382;9.020;2023-04-03T15:11:52;12.30;99.90
10306;DHT22;5198;52.382;9.020;2023-04-03T15:15:55;12.20;99.90
10306;DHT22;5198;52.382;9.020;2023-04-03T15:19:58;12.10;99.90
10306;DHT22;5198;52.382;9.020;2023-04-03T15:24:03;12.10;99.90
10306;DHT22;5198;52.382;9.020;2023-04-03T15:28:06;12.20;99.90
10306;DHT22;5198;52.382;9.020;2023-04-03T15:32:09;12.40;99.90
10306;DHT22;5198;52.382;9.020;2023-04-03T15:36:12;12.60;99.90
10306;DHT22;5198;52.382;9.020;2023-04-03T15:40:35;12.80;99.90
10306;DHT22;5198;52.382;9.020;2023-04-03T15:44:38;12.90;99.90
10306;DHT22;5198;52.382;9.020;2023-04-03T15:48:41;13.00;99.90
10306;DHT22;5198;52.382;9.020;2023-04-03T15:52:44;13.30;99.90
10306;DHT22;5198;52.382;9.020;2023-04-03T15:56:48;13.60;99.90
10306;DHT22;5198;52.382;9.020;2023-04-03T16:00:51;13.90;99.90
10306;DHT22;5198;52.382;9.020;2023-04-03T16:04:54;13.90;99.90
10306;DHT22;5198;52.382;9.020;2023-04-03T16:08:57;13.70;99.90
10306;DHT22;5198;52.382;9.020;2023-04-03T16:13:01;13.60;99.90
10306;DHT22;5198;52.382;9.020;2023-04-03T16:17:04;13.70;99.90
10306;DHT22;5198;52.382;9.020;2023-04-03T16:21:07;14.00;99.90
10306;DHT22;5198;52.382;9.020;2023-04-03T16:25:11;14.20;99.90
10306;DHT22;5198;52.382;9.020;2023-04-03T16:29:15;14.40;99.90
10306;DHT22;5198;52.382;9.020;2023-04-03T16:33:18;14.20;99.90
10306;DHT22;5198;52.382;9.020;2023-04-03T16:37:22;14.00;99.90
10306;DHT22;5198;52.382;9.020;2023-04-03T16:41:28;13.70;99.90
10306;DHT22;5198;52.382;9.020;2023-04-03T16:45:32;13.30;99.90
10306;DHT22;5198;52.382;9.020;2023-04-03T16:49:35;13.10;99.90
10306;DHT22;5198;52.382;9.020;2023-04-03T16:53:38;13.00;99.90
10306;DHT22;5198;52.382;9.020;2023-04-03T16:57:41;13.00;99.90
10306;DHT22;5198;52.382;9.020;2023-04-03T17:01:45;12.90;99.90
10306;DHT22;5198;52.382;9.020;2023-04-03T17:09:51;12.40;99.90
10306;DHT22;5198;52.382;9.020;2023-04-03T17:13:55;12.10;99.90
10306;DHT22;5198;52.382;9.020;2023-04-03T17:17:59;11.70;99.90
10306;DHT22;5198;52.382;9.020;2023-04-03T17:22:02;11.60;99.90
10306;DHT22;5198;52.382;9.020;2023-04-03T17:26:05;11.30;99.90
10306;DHT22;5198;52.382;9.020;2023-04-03T17:30:08;11.10;99.90
10306;DHT22;5198;52.382;9.020;2023-04-03T17:34:12;10.80;99.90
10306;DHT22;5198;52.382;9.020;2023-04-03T17:38:15;10.60;99.90
10306;DHT22;5198;52.382;9.020;2023-04-03T17:42:18;10.40;99.90
10306;DHT22;5198;52.382;9.020;2023-04-03T17:46:21;9.90;99.90
10306;DHT22;5198;52.382;9.020;2023-04-03T17:50:26;9.70;99.90
10306;DHT22;5198;52.382;9.020;2023-04-03T17:54:29;9.70;99.90
10306;DHT22;5198;52.382;9.020;2023-04-03T17:58:32;9.50;99.90
10306;DHT22;5198;52.382;9.020;2023-04-03T18:02:35;9.30;99.90
10306;DHT22;5198;52.382;9.020;2023-04-03T18:06:40;8.90;99.90
10306;DHT22;5198;52.382;9.020;2023-04-03T18:10:43;8.90;99.90
10306;DHT22;5198;52.382;9.020;2023-04-03T18:14:46;8.70;99.90
10306;DHT22;5198;52.382;9.020;2023-04-03T18:18:50;8.50;99.90
10306;DHT22;5198;52.382;9.020;2023-04-03T18:23:14;8.40;99.90
10306;DHT22;5198;52.382;9.020;2023-04-03T18:27:17;8.20;99.90
10306;DHT22;5198;52.382;9.020;2023-04-03T18:31:20;8.10;99.90
10306;DHT22;5198;52.382;9.020;2023-04-03T18:35:23;7.90;99.90
10306;DHT22;5198;52.382;9.020;2023-04-03T18:39:27;7.70;99.90
10306;DHT22;5198;52.382;9.020;2023-04-03T18:43:30;7.60;99.90
10306;DHT22;5198;52.382;9.020;2023-04-03T18:47:33;7.50;99.90
10306;DHT22;5198;52.382;9.020;2023-04-03T18:51:37;7.30;99.90
10306;DHT22;5198;52.382;9.020;2023-04-03T18:55:42;7.20;99.90
10306;DHT22;5198;52.382;9.020;2023-04-03T18:59:46;7.10;99.90
10306;DHT22;5198;52.382;9.020;2023-04-03T19:03:48;6.90;99.90
10306;DHT22;5198;52.382;9.020;2023-04-03T19:07:52;6.80;99.90
10306;DHT22;5198;52.382;9.020;2023-04-03T19:11:57;6.70;99.90
10306;DHT22;5198;52.382;9.020;2023-04-03T19:20:05;6.50;99.90
10306;DHT22;5198;52.382;9.020;2023-04-03T19:24:09;6.50;99.90
10306;DHT22;5198;52.382;9.020;2023-04-03T19:28:13;6.30;99.90
10306;DHT22;5198;52.382;9.020;2023-04-03T19:32:16;6.20;99.90
10306;DHT22;5198;52.382;9.020;2023-04-03T19:36:19;6.10;99.90
10306;DHT22;5198;52.382;9.020;2023-04-03T19:40:22;6.00;99.90
10306;DHT22;5198;52.382;9.020;2023-04-03T19:44:27;5.90;99.90
10306;DHT22;5198;52.382;9.020;2023-04-03T19:48:30;5.80;99.90
10306;DHT22;5198;52.382;9.020;2023-04-03T19:52:33;5.80;99.90
10306;DHT22;5198;52.382;9.020;2023-04-03T20:00:40;5.60;99.90
10306;DHT22;5198;52.382;9.020;2023-04-03T20:04:43;5.60;99.90
10306;DHT22;5198;52.382;9.020;2023-04-03T20:08:46;5.50;99.90
10306;DHT22;5198;52.382;9.020;2023-04-03T20:12:49;5.40;99.90
10306;DHT22;5198;52.382;9.020;2023-04-03T20:16:54;5.40;99.90
10306;DHT22;5198;52.382;9.020;2023-04-03T20:20:57;5.30;99.90
10306;DHT22;5198;52.382;9.020;2023-04-03T20:25:01;5.20;99.90
10306;DHT22;5198;52.382;9.020;2023-04-03T20:29:07;5.20;99.90
10306;DHT22;5198;52.382;9.020;2023-04-03T20:33:11;5.20;99.90
10306;DHT22;5198;52.382;9.020;2023-04-03T20:37:14;5.10;99.90
10306;DHT22;5198;52.382;9.020;2023-04-03T20:41:21;5.10;99.90
10306;DHT22;5198;52.382;9.020;2023-04-03T20:45:24;5.00;99.90
10306;DHT22;5198;52.382;9.020;2023-04-03T20:49:28;5.00;99.90
10306;DHT22;5198;52.382;9.020;2023-04-03T20:53:31;4.90;99.90
10306;DHT22;5198;52.382;9.020;2023-04-03T20:57:34;4.90;99.90
10306;DHT22;5198;52.382;9.020;2023-04-03T21:01:37;4.80;99.90
10306;DHT22;5198;52.382;9.020;2023-04-03T21:05:42;4.80;99.90
10306;DHT22;5198;52.382;9.020;2023-04-03T21:22:40;4.50;99.90
10306;DHT22;5198;52.382;9.020;2023-04-03T21:26:45;4.50;99.90
10306;DHT22;5198;52.382;9.020;2023-04-03T21:30:48;4.40;99.90
10306;DHT22;5198;52.382;9.020;2023-04-03T21:34:52;4.40;99.90
10306;DHT22;5198;52.382;9.020;2023-04-03T21:38:55;4.30;99.90
10306;DHT22;5198;52.382;9.020;2023-04-03T21:42:59;4.30;99.90
10306;DHT22;5198;52.382;9.020;2023-04-03T21:47:03;4.20;99.90
10306;DHT22;5198;52.382;9.020;2023-04-03T21:51:07;4.10;99.90
10306;DHT22;5198;52.382;9.020;2023-04-03T21:55:11;4.10;99.90
10306;DHT22;5198;52.382;9.020;2023-04-03T21:59:15;4.00;99.90
10306;DHT22;5198;52.382;9.020;2023-04-03T22:03:19;4.00;99.90
10306;DHT22;5198;52.382;9.020;2023-04-03T22:07:25;3.90;99.90
10306;DHT22;5198;52.382;9.020;2023-04-03T22:11:28;3.90;99.90
10306;DHT22;5198;52.382;9.020;2023-04-03T22:15:34;3.80;99.90
10306;DHT22;5198;52.382;9.020;2023-04-03T22:19:37;3.70;99.90
10306;DHT22;5198;52.382;9.020;2023-04-03T22:23:41;3.70;99.90
10306;DHT22;5198;52.382;9.020;2023-04-03T22:27:44;3.60;99.90
10306;DHT22;5198;52.382;9.020;2023-04-03T22:35:50;3.40;99.90
10306;DHT22;5198;52.382;9.020;2023-04-03T22:39:54;3.50;99.90
10306;DHT22;5198;52.382;9.020;2023-04-03T22:43:58;3.40;99.90
10306;DHT22;5198;52.382;9.020;2023-04-03T22:48:01;3.30;99.90
10306;DHT22;5198;52.382;9.020;2023-04-03T22:52:04;3.30;99.90
10306;DHT22;5198;52.382;9.020;2023-04-03T22:56:08;3.20;99.90
10306;DHT22;5198;52.382;9.020;2023-04-03T23:00:12;3.20;99.90
10306;DHT22;5198;52.382;9.020;2023-04-03T23:04:16;3.10;99.90
10306;DHT22;5198;52.382;9.020;2023-04-03T23:08:19;3.10;99.90
10306;DHT22;5198;52.382;9.020;2023-04-03T23:12:23;3.00;99.90
10306;DHT22;5198;52.382;9.020;2023-04-03T23:16:26;3.00;99.90
10306;DHT22;5198;52.382;9.020;2023-04-03T23:20:29;2.90;99.90
10306;DHT22;5198;52.382;9.020;2023-04-03T23:24:32;2.80;99.90
10306;DHT22;5198;52.382;9.020;2023-04-03T23:28:36;2.80;99.90
10306;DHT22;5198;52.382;9.020;2023-04-03T23:32:39;2.70;99.90
10306;DHT22;5198;52.382;9.020;2023-04-03T23:36:41;2.60;99.90
10306;DHT22;5198;52.382;9.020;2023-04-03T23:40:44;2.50;99.90
10306;DHT22;5198;52.382;9.020;2023-04-03T23:44:49;2.40;99.90
10306;DHT22;5198;52.382;9.020;2023-04-03T23:48:51;2.40;99.90
10306;DHT22;5198;52.382;9.020;2023-04-03T23:52:54;2.30;99.90
10306;DHT22;5198;52.382;9.020;2023-04-03T23:56:58;2.30;99.90
